createdAt,value
2022-12-31T00:00:33.531Z,15.86
2022-12-31T00:03:01.472Z,15.95
2022-12-31T00:05:32.908Z,15.91
2022-12-31T00:08:01.532Z,15.97
2022-12-31T00:10:29.328Z,15.95
2022-12-31T00:12:57.082Z,15.99
2022-12-31T00:15:24.665Z,15.90
2022-12-31T00:17:52.239Z,15.93
2022-12-31T00:20:19.930Z,15.98
2022-12-31T00:22:48.814Z,15.97
2022-12-31T00:25:16.484Z,15.93
2022-12-31T00:27:44.275Z,15.86
2022-12-31T00:30:13.057Z,15.83
2022-12-31T00:32:40.618Z,15.75
2022-12-31T00:35:08.993Z,15.62
2022-12-31T00:37:36.605Z,15.60
2022-12-31T00:40:06.405Z,15.57
2022-12-31T00:42:34.020Z,15.53
2022-12-31T00:45:01.599Z,15.51
2022-12-31T00:47:29.152Z,15.45
2022-12-31T00:49:56.720Z,15.47
2022-12-31T00:52:24.288Z,15.44
2022-12-31T00:54:51.805Z,15.43
2022-12-31T00:57:20.829Z,15.36
2022-12-31T00:59:48.426Z,15.39
2022-12-31T01:02:16.149Z,15.48
2022-12-31T01:04:44.487Z,15.52
2022-12-31T01:07:12.095Z,15.65
2022-12-31T01:09:39.665Z,15.84
2022-12-31T01:12:07.765Z,15.87
2022-12-31T01:14:36.924Z,15.84
2022-12-31T01:17:04.503Z,15.73
2022-12-31T01:19:32.060Z,15.59
2022-12-31T01:21:59.743Z,15.61
2022-12-31T01:24:27.334Z,15.58
2022-12-31T01:26:57.645Z,15.57
2022-12-31T01:29:26.714Z,15.76
2022-12-31T01:31:55.642Z,15.86
2022-12-31T01:34:23.331Z,15.88
2022-12-31T01:36:50.906Z,15.99
2022-12-31T01:39:18.489Z,15.96
2022-12-31T01:41:48.218Z,15.99
2022-12-31T01:44:51.736Z,16.00
2022-12-31T01:47:27.732Z,16.03
2022-12-31T01:50:00.147Z,16.07
2022-12-31T01:52:31.450Z,16.11
2022-12-31T01:55:04.181Z,16.20
2022-12-31T01:57:32.693Z,16.21
2022-12-31T02:00:02.577Z,16.20
2022-12-31T02:02:33.977Z,16.21
2022-12-31T02:05:06.683Z,16.28
2022-12-31T02:07:34.357Z,16.33
2022-12-31T02:10:02.596Z,16.33
2022-12-31T02:12:30.283Z,16.35
2022-12-31T02:14:57.919Z,16.47
2022-12-31T02:17:33.535Z,16.42
2022-12-31T02:20:27.131Z,16.44
2022-12-31T02:23:39.629Z,16.49
2022-12-31T02:26:47.057Z,16.42
2022-12-31T02:29:36.721Z,16.43
2022-12-31T02:32:09.009Z,16.54
2022-12-31T02:34:42.155Z,16.52
2022-12-31T02:37:13.167Z,16.46
2022-12-31T02:39:41.849Z,16.55
2022-12-31T02:42:11.032Z,16.57
2022-12-31T02:44:40.373Z,16.55
2022-12-31T02:47:23.705Z,16.75
2022-12-31T02:50:04.477Z,16.72
2022-12-31T02:52:45.672Z,16.62
2022-12-31T02:55:22.451Z,16.59
2022-12-31T02:57:56.527Z,16.58
2022-12-31T03:00:41.949Z,16.63
2022-12-31T03:03:11.834Z,16.85
2022-12-31T03:05:42.874Z,16.85
2022-12-31T03:08:10.771Z,16.92
2022-12-31T03:10:38.294Z,16.87
2022-12-31T03:13:04.951Z,16.85
2022-12-31T03:15:35.112Z,16.90
2022-12-31T03:18:10.621Z,16.94
2022-12-31T03:20:59.225Z,17.05
2022-12-31T03:23:29.243Z,17.02
2022-12-31T03:25:57.318Z,17.14
2022-12-31T03:28:26.582Z,17.20
2022-12-31T03:30:56.699Z,17.29
2022-12-31T03:33:24.989Z,17.34
2022-12-31T03:35:54.121Z,17.27
2022-12-31T03:38:21.966Z,17.29
2022-12-31T03:40:51.518Z,17.34
2022-12-31T03:43:20.118Z,17.36
2022-12-31T03:45:49.450Z,17.35
2022-12-31T03:48:17.063Z,17.37
2022-12-31T03:50:44.681Z,17.43
2022-12-31T03:53:13.571Z,17.43
2022-12-31T03:55:41.118Z,17.43
2022-12-31T03:58:08.819Z,17.44
2022-12-31T04:00:36.695Z,17.44
2022-12-31T04:03:04.503Z,17.44
2022-12-31T04:05:32.287Z,17.42
2022-12-31T04:07:59.845Z,17.40
2022-12-31T04:10:28.761Z,17.45
2022-12-31T04:12:56.320Z,17.46
2022-12-31T04:15:23.835Z,17.42
2022-12-31T04:17:51.353Z,17.41
2022-12-31T04:20:20.608Z,17.41
2022-12-31T04:22:48.141Z,17.42
2022-12-31T04:25:15.682Z,17.40
2022-12-31T04:27:46.250Z,17.37
2022-12-31T04:30:14.593Z,17.41
2022-12-31T04:32:42.236Z,17.41
2022-12-31T04:35:11.402Z,17.42
2022-12-31T04:37:38.967Z,17.40
2022-12-31T04:40:09.058Z,17.44
2022-12-31T04:42:37.147Z,17.44
2022-12-31T04:45:07.231Z,17.67
2022-12-31T04:47:34.873Z,17.67
2022-12-31T04:50:02.489Z,17.70
2022-12-31T04:52:30.035Z,17.75
2022-12-31T04:54:57.619Z,17.73
2022-12-31T04:57:25.197Z,17.70
2022-12-31T04:59:52.968Z,17.74
2022-12-31T05:02:22.143Z,17.70
2022-12-31T05:04:49.901Z,17.69
2022-12-31T05:07:18.613Z,17.60
2022-12-31T05:09:46.264Z,17.75
2022-12-31T05:12:13.988Z,17.65
2022-12-31T05:14:41.605Z,17.58
2022-12-31T05:17:09.202Z,17.55
2022-12-31T05:19:38.136Z,17.51
2022-12-31T05:22:23.308Z,17.51
2022-12-31T05:24:52.313Z,17.60
2022-12-31T05:27:19.919Z,17.65
2022-12-31T05:29:47.762Z,17.63
2022-12-31T05:32:15.355Z,17.66
2022-12-31T05:34:44.507Z,17.64
2022-12-31T05:37:12.638Z,17.61
2022-12-31T05:39:40.216Z,17.58
2022-12-31T05:42:07.792Z,17.61
2022-12-31T05:44:35.352Z,17.69
2022-12-31T05:47:02.875Z,17.65
2022-12-31T05:49:30.426Z,17.62
2022-12-31T05:51:59.297Z,17.62
2022-12-31T05:54:27.555Z,17.68
2022-12-31T05:56:55.162Z,17.64
2022-12-31T05:59:22.726Z,17.62
2022-12-31T06:01:50.351Z,17.58
2022-12-31T06:04:18.215Z,17.61
2022-12-31T06:06:45.865Z,17.65
2022-12-31T06:09:15.828Z,17.57
2022-12-31T06:11:43.414Z,17.56
2022-12-31T06:14:11.037Z,17.51
2022-12-31T06:16:38.628Z,17.50
2022-12-31T06:19:06.224Z,17.43
2022-12-31T06:21:34.042Z,17.31
2022-12-31T06:24:01.626Z,17.27
2022-12-31T06:26:30.568Z,17.20
2022-12-31T06:28:58.104Z,17.20
2022-12-31T06:31:25.760Z,17.26
2022-12-31T06:33:53.383Z,17.19
2022-12-31T06:36:22.247Z,17.14
2022-12-31T06:38:51.395Z,17.22
2022-12-31T06:41:19.394Z,17.22
2022-12-31T06:43:48.895Z,17.16
2022-12-31T06:46:18.567Z,17.11
2022-12-31T06:48:46.549Z,17.18
2022-12-31T06:51:17.740Z,17.11
2022-12-31T06:53:46.766Z,17.08
2022-12-31T06:56:16.544Z,17.00
2022-12-31T06:58:45.806Z,17.08
2022-12-31T07:01:37.811Z,17.05
2022-12-31T07:04:26.809Z,16.98
2022-12-31T07:07:00.527Z,17.00
2022-12-31T07:09:34.832Z,17.03
2022-12-31T07:12:07.579Z,17.06
2022-12-31T07:14:38.284Z,17.08
2022-12-31T07:17:22.902Z,17.14
2022-12-31T07:19:59.191Z,17.20
2022-12-31T07:22:27.291Z,17.32
2022-12-31T07:24:55.362Z,17.45
2022-12-31T07:27:50.691Z,17.42
2022-12-31T07:30:21.601Z,17.43
2022-12-31T07:33:08.071Z,17.43
2022-12-31T07:35:42.826Z,17.43
2022-12-31T07:38:21.668Z,17.50
2022-12-31T07:40:58.244Z,17.47
2022-12-31T07:43:33.050Z,17.51
2022-12-31T07:46:08.042Z,17.48
2022-12-31T07:48:37.435Z,17.58
2022-12-31T07:51:06.642Z,17.62
2022-12-31T07:53:34.757Z,17.57
2022-12-31T07:56:04.249Z,17.60
2022-12-31T07:58:45.814Z,17.63
2022-12-31T08:01:16.926Z,17.64
2022-12-31T08:03:59.444Z,17.68
2022-12-31T08:06:37.689Z,17.69
2022-12-31T08:09:12.882Z,17.69
2022-12-31T08:11:50.488Z,17.79
2022-12-31T08:14:20.611Z,17.78
2022-12-31T08:16:48.906Z,17.83
2022-12-31T08:19:24.729Z,17.83
2022-12-31T08:22:09.885Z,17.84
2022-12-31T08:24:50.469Z,17.90
2022-12-31T08:27:25.011Z,17.97
2022-12-31T08:30:02.625Z,17.97
2022-12-31T08:32:37.654Z,18.03
2022-12-31T08:35:27.813Z,18.05
2022-12-31T08:38:02.835Z,18.07
2022-12-31T08:40:53.037Z,18.08
2022-12-31T08:43:34.308Z,18.06
2022-12-31T08:46:02.128Z,18.13
2022-12-31T08:48:37.783Z,18.15
2022-12-31T08:51:08.048Z,18.16
2022-12-31T08:53:36.272Z,18.18
2022-12-31T08:56:11.245Z,18.19
2022-12-31T08:58:47.574Z,18.23
2022-12-31T09:01:18.965Z,18.25
2022-12-31T09:03:59.964Z,18.28
2022-12-31T09:06:34.769Z,18.32
2022-12-31T09:09:11.424Z,18.35
2022-12-31T09:11:51.188Z,18.36
2022-12-31T09:14:28.700Z,18.39
2022-12-31T09:17:04.190Z,18.35
2022-12-31T09:19:31.757Z,18.31
2022-12-31T09:22:01.147Z,18.34
2022-12-31T09:24:29.293Z,18.32
2022-12-31T09:27:05.569Z,18.32
2022-12-31T09:29:45.781Z,18.34
2022-12-31T09:32:23.340Z,18.38
2022-12-31T09:34:55.944Z,18.50
2022-12-31T09:37:36.946Z,18.57
2022-12-31T09:40:30.682Z,18.65
2022-12-31T09:43:23.081Z,18.68
2022-12-31T09:46:10.453Z,18.64
2022-12-31T09:48:55.830Z,18.65
2022-12-31T09:51:30.691Z,18.63
2022-12-31T09:54:21.667Z,18.68
2022-12-31T09:57:00.520Z,18.72
2022-12-31T09:59:36.262Z,18.81
2022-12-31T10:02:20.882Z,18.88
2022-12-31T10:04:56.788Z,19.01
2022-12-31T10:07:52.056Z,19.21
2022-12-31T10:10:26.977Z,19.25
2022-12-31T10:13:22.861Z,19.25
2022-12-31T10:16:23.935Z,19.36
2022-12-31T10:19:14.109Z,19.35
2022-12-31T10:21:54.883Z,19.28
2022-12-31T10:24:46.362Z,19.26
2022-12-31T10:27:37.963Z,19.39
2022-12-31T10:30:16.146Z,19.47
2022-12-31T10:32:45.890Z,19.70
2022-12-31T10:35:28.867Z,19.87
2022-12-31T10:38:13.486Z,19.88
2022-12-31T10:41:04.424Z,20.10
2022-12-31T10:44:13.375Z,20.41
2022-12-31T10:46:59.656Z,20.69
2022-12-31T10:49:51.516Z,20.81
2022-12-31T10:53:07.297Z,21.03
2022-12-31T10:56:10.692Z,21.10
2022-12-31T10:59:04.764Z,20.90
2022-12-31T11:01:43.038Z,20.76
2022-12-31T11:04:38.277Z,20.73
2022-12-31T11:07:39.087Z,20.82
2022-12-31T11:10:39.443Z,20.97
2022-12-31T11:13:39.791Z,21.05
2022-12-31T11:16:28.667Z,21.14
2022-12-31T11:19:02.901Z,21.27
2022-12-31T11:21:47.082Z,21.24
2022-12-31T11:24:28.648Z,21.25
2022-12-31T11:27:15.223Z,21.49
2022-12-31T11:30:04.432Z,21.81
2022-12-31T11:32:50.455Z,21.93
2022-12-31T11:35:31.571Z,21.73
2022-12-31T11:38:06.432Z,21.52
2022-12-31T11:40:57.472Z,21.24
2022-12-31T11:43:34.465Z,21.23
2022-12-31T11:46:22.473Z,21.75
2022-12-31T11:49:09.065Z,21.92
2022-12-31T11:51:50.767Z,22.23
2022-12-31T11:54:37.395Z,22.13
2022-12-31T11:57:17.206Z,22.12
2022-12-31T11:59:44.894Z,22.31
2022-12-31T12:02:25.427Z,22.38
2022-12-31T12:04:58.675Z,22.41
2022-12-31T12:07:27.047Z,22.79
2022-12-31T12:09:56.300Z,22.88
2022-12-31T12:12:24.048Z,22.73
2022-12-31T12:14:55.256Z,22.33
2022-12-31T12:17:32.021Z,22.36
2022-12-31T12:20:04.198Z,22.12
2022-12-31T12:22:32.793Z,22.24
2022-12-31T12:25:06.538Z,22.05
2022-12-31T12:27:36.200Z,22.56
2022-12-31T12:30:11.977Z,22.85
2022-12-31T12:32:39.590Z,22.51
2022-12-31T12:35:27.856Z,22.48
2022-12-31T12:38:03.924Z,22.51
2022-12-31T12:40:34.328Z,22.29
2022-12-31T12:43:03.603Z,22.26
2022-12-31T12:45:41.438Z,22.30
2022-12-31T12:48:18.228Z,22.58
2022-12-31T12:50:49.574Z,22.81
2022-12-31T12:53:31.496Z,22.87
2022-12-31T12:56:10.022Z,22.99
2022-12-31T12:58:49.352Z,22.93
2022-12-31T13:01:28.054Z,22.99
2022-12-31T13:04:36.075Z,22.57
2022-12-31T13:07:17.687Z,22.33
2022-12-31T13:09:59.295Z,22.41
2022-12-31T13:12:56.773Z,22.50
2022-12-31T13:15:28.304Z,22.51
2022-12-31T13:18:06.004Z,22.61
2022-12-31T13:20:40.121Z,22.22
2022-12-31T13:23:20.191Z,22.26
2022-12-31T13:26:02.136Z,22.23
2022-12-31T13:28:31.573Z,22.02
2022-12-31T13:31:06.758Z,21.96
2022-12-31T13:33:40.830Z,22.03
2022-12-31T13:36:13.455Z,21.72
2022-12-31T13:38:46.854Z,21.83
2022-12-31T13:41:18.317Z,21.67
2022-12-31T13:43:52.575Z,21.58
2022-12-31T13:46:26.931Z,21.31
2022-12-31T13:48:58.050Z,21.34
2022-12-31T13:51:35.139Z,21.44
2022-12-31T13:54:11.517Z,21.33
2022-12-31T13:56:40.346Z,21.39
2022-12-31T13:59:16.445Z,21.37
2022-12-31T14:01:49.483Z,21.29
2022-12-31T14:04:19.744Z,21.21
2022-12-31T14:06:54.118Z,21.21
2022-12-31T14:09:24.918Z,21.26
2022-12-31T14:12:14.058Z,21.14
2022-12-31T14:14:49.927Z,21.19
2022-12-31T14:17:24.204Z,21.13
2022-12-31T14:20:00.607Z,21.06
2022-12-31T14:22:37.113Z,21.00
2022-12-31T14:25:12.132Z,20.92
2022-12-31T14:27:44.265Z,20.72
2022-12-31T14:30:17.274Z,20.63
2022-12-31T14:33:02.915Z,20.49
2022-12-31T14:35:46.320Z,20.39
2022-12-31T14:38:25.887Z,20.36
2022-12-31T14:41:06.817Z,20.24
2022-12-31T14:43:45.099Z,20.21
2022-12-31T14:46:25.447Z,20.14
2022-12-31T14:49:03.052Z,20.11
2022-12-31T14:51:31.256Z,19.99
2022-12-31T14:53:59.567Z,19.87
2022-12-31T14:56:33.098Z,19.78
2022-12-31T14:59:02.905Z,19.67
2022-12-31T15:01:31.084Z,19.56
2022-12-31T15:03:59.035Z,19.50
2022-12-31T15:06:39.815Z,19.46
2022-12-31T15:09:18.118Z,19.36
2022-12-31T15:12:05.535Z,19.33
2022-12-31T15:15:04.578Z,19.22
2022-12-31T15:17:45.476Z,19.13
2022-12-31T15:20:32.916Z,19.06
2022-12-31T15:23:00.759Z,18.99
2022-12-31T15:25:36.770Z,18.94
2022-12-31T15:28:28.518Z,18.88
2022-12-31T15:31:04.522Z,18.78
2022-12-31T15:33:37.515Z,18.68
2022-12-31T15:36:17.311Z,18.58
2022-12-31T15:38:46.021Z,18.51
2022-12-31T15:41:16.639Z,18.46
2022-12-31T15:43:50.338Z,18.36
2022-12-31T15:46:20.783Z,18.21
2022-12-31T15:48:55.479Z,18.22
2022-12-31T15:51:30.411Z,18.19
2022-12-31T15:54:00.645Z,18.11
2022-12-31T15:56:35.142Z,18.06
2022-12-31T15:59:08.898Z,17.91
2022-12-31T16:01:37.812Z,17.88
2022-12-31T16:04:08.766Z,17.80
2022-12-31T16:06:38.412Z,17.70
2022-12-31T16:09:09.558Z,17.62
2022-12-31T16:11:40.471Z,17.54
2022-12-31T16:14:19.298Z,17.28
2022-12-31T16:16:54.502Z,17.19
2022-12-31T16:19:31.984Z,17.16
2022-12-31T16:22:03.947Z,17.05
2022-12-31T16:24:35.227Z,17.01
2022-12-31T16:27:07.990Z,16.92
2022-12-31T16:29:38.375Z,16.84
2022-12-31T16:32:12.950Z,16.66
2022-12-31T16:34:40.547Z,16.58
2022-12-31T16:37:16.097Z,16.42
2022-12-31T16:40:09.416Z,16.20
2022-12-31T16:42:44.291Z,16.03
2022-12-31T16:45:28.813Z,15.96
2022-12-31T16:47:56.676Z,15.86
2022-12-31T16:50:26.033Z,15.82
2022-12-31T16:53:00.235Z,15.72
2022-12-31T16:55:30.821Z,15.66
2022-12-31T16:58:02.555Z,15.63
2022-12-31T17:00:33.237Z,15.60
2022-12-31T17:03:08.833Z,15.55
2022-12-31T17:05:55.434Z,15.57
2022-12-31T17:08:25.691Z,15.56
2022-12-31T17:10:53.812Z,15.54
2022-12-31T17:13:30.587Z,15.43
2022-12-31T17:16:00.863Z,15.29
2022-12-31T17:18:36.002Z,15.18
2022-12-31T17:21:09.151Z,15.13
2022-12-31T17:23:39.546Z,15.04
2022-12-31T17:26:12.225Z,14.97
2022-12-31T17:28:44.435Z,14.94
2022-12-31T17:31:35.031Z,14.93
2022-12-31T17:34:24.176Z,14.85
2022-12-31T17:37:03.413Z,14.75
2022-12-31T17:39:44.279Z,14.71
2022-12-31T17:42:13.700Z,14.59
2022-12-31T17:44:44.031Z,14.51
2022-12-31T17:47:14.805Z,14.42
2022-12-31T17:49:44.838Z,14.31
2022-12-31T17:52:14.367Z,14.24
2022-12-31T17:54:42.312Z,14.12
2022-12-31T17:57:22.726Z,14.03
2022-12-31T17:59:50.316Z,13.97
2022-12-31T18:02:19.593Z,13.89
2022-12-31T18:04:47.238Z,13.84
2022-12-31T18:07:14.749Z,13.77
2022-12-31T18:09:42.356Z,13.73
2022-12-31T18:12:09.914Z,13.68
2022-12-31T18:14:37.517Z,13.65
2022-12-31T18:17:06.934Z,13.59
2022-12-31T18:20:03.676Z,13.55
2022-12-31T18:22:23.343Z,13.54
2022-12-31T18:24:54.044Z,13.49
2022-12-31T18:27:21.655Z,13.44
2022-12-31T18:29:49.326Z,13.42
2022-12-31T18:32:23.770Z,13.37
2022-12-31T18:34:53.112Z,13.32
2022-12-31T18:37:22.193Z,13.26
2022-12-31T18:39:50.357Z,13.20
2022-12-31T18:42:19.478Z,13.15
2022-12-31T18:44:47.500Z,13.09
2022-12-31T18:47:16.432Z,13.05
2022-12-31T18:49:44.797Z,13.06
2022-12-31T18:52:15.611Z,13.10
2022-12-31T18:54:43.608Z,13.07
2022-12-31T18:57:11.706Z,13.05
2022-12-31T18:59:39.530Z,12.99
2022-12-31T19:02:15.118Z,12.89
2022-12-31T19:04:42.765Z,12.76
2022-12-31T19:07:10.419Z,12.74
2022-12-31T19:09:48.330Z,12.70
2022-12-31T19:12:17.768Z,12.64
2022-12-31T19:14:45.467Z,12.59
2022-12-31T19:17:13.043Z,12.53
2022-12-31T19:19:40.664Z,12.56
2022-12-31T19:22:14.338Z,12.58
2022-12-31T19:24:43.265Z,12.57
2022-12-31T19:27:11.269Z,12.52
2022-12-31T19:29:38.822Z,12.44
2022-12-31T19:32:06.992Z,12.45
2022-12-31T19:34:34.645Z,12.41
2022-12-31T19:37:02.298Z,12.35
2022-12-31T19:39:29.851Z,12.30
2022-12-31T19:41:59.799Z,12.18
2022-12-31T19:44:27.773Z,12.13
2022-12-31T19:46:55.424Z,12.06
2022-12-31T19:49:22.946Z,12.06
2022-12-31T19:51:50.480Z,12.00
2022-12-31T19:54:18.056Z,11.93
2022-12-31T19:56:45.588Z,11.92
2022-12-31T19:59:14.563Z,11.90
2022-12-31T20:01:42.191Z,11.94
2022-12-31T20:04:09.829Z,11.86
2022-12-31T20:06:37.384Z,11.82
2022-12-31T20:09:05.668Z,11.76
2022-12-31T20:11:33.315Z,11.74
2022-12-31T20:14:00.975Z,11.71
2022-12-31T20:16:31.526Z,11.67
2022-12-31T20:18:59.214Z,11.66
2022-12-31T20:21:28.884Z,11.68
2022-12-31T20:23:57.107Z,11.66
2022-12-31T20:26:25.999Z,11.90
2022-12-31T20:28:54.143Z,12.17
2022-12-31T20:31:25.599Z,12.26
2022-12-31T20:33:55.421Z,12.17
2022-12-31T20:36:24.074Z,12.02
2022-12-31T20:38:51.726Z,11.98
2022-12-31T20:41:21.477Z,11.81
2022-12-31T20:43:49.616Z,11.72
2022-12-31T20:46:19.859Z,11.71
2022-12-31T20:48:48.722Z,11.92
2022-12-31T20:51:18.890Z,11.84
2022-12-31T20:53:48.391Z,11.77
2022-12-31T20:56:17.233Z,11.72
2022-12-31T20:58:45.682Z,11.77
2022-12-31T21:01:13.959Z,12.04
2022-12-31T21:04:14.393Z,12.03
2022-12-31T21:06:33.762Z,12.15
2022-12-31T21:09:02.822Z,12.20
2022-12-31T21:11:48.185Z,12.19
2022-12-31T21:14:16.009Z,12.16
2022-12-31T21:16:43.608Z,12.09
2022-12-31T21:19:11.196Z,12.01
2022-12-31T21:21:40.123Z,11.97
2022-12-31T21:24:08.113Z,11.93
2022-12-31T21:26:35.878Z,11.93
2022-12-31T21:29:03.502Z,11.93
2022-12-31T21:31:31.298Z,11.96
2022-12-31T21:33:58.927Z,12.03
2022-12-31T21:36:26.546Z,12.05
2022-12-31T21:38:55.438Z,12.05
2022-12-31T21:41:40.756Z,11.97
2022-12-31T21:44:08.313Z,11.88
2022-12-31T21:46:36.127Z,11.89
2022-12-31T21:49:04.056Z,11.99
2022-12-31T21:51:31.739Z,12.41
2022-12-31T21:54:00.656Z,12.59
2022-12-31T21:56:27.314Z,12.70
2022-12-31T21:59:15.365Z,12.63
2022-12-31T22:02:00.933Z,12.59
2022-12-31T22:05:00.886Z,12.66
2022-12-31T22:07:16.197Z,12.58
2022-12-31T22:09:45.140Z,12.68
2022-12-31T22:12:12.768Z,12.84
2022-12-31T22:15:14.465Z,13.26
2022-12-31T22:17:28.582Z,13.38
2022-12-31T22:22:43.756Z,13.54
2022-12-31T22:25:12.685Z,13.57
2022-12-31T22:27:40.340Z,13.55
2022-12-31T22:30:09.132Z,13.53
2022-12-31T22:32:36.705Z,14.03
2022-12-31T22:35:04.591Z,14.13
2022-12-31T22:37:57.106Z,14.56
2022-12-31T22:40:21.489Z,14.43
2022-12-31T22:42:49.126Z,14.26
2022-12-31T22:45:16.882Z,14.10
2022-12-31T22:47:44.420Z,14.05
2022-12-31T22:50:12.003Z,13.97
2022-12-31T22:52:39.658Z,13.84
2022-12-31T22:55:08.597Z,13.70
2022-12-31T22:57:37.582Z,13.75
2022-12-31T23:00:09.915Z,13.80
2022-12-31T23:02:41.738Z,13.99
2022-12-31T23:05:15.499Z,14.04
2022-12-31T23:07:44.022Z,13.93
2022-12-31T23:10:29.300Z,13.89
2022-12-31T23:13:19.810Z,13.81
2022-12-31T23:16:04.949Z,13.70
2022-12-31T23:18:50.144Z,13.61
2022-12-31T23:21:35.508Z,13.66
2022-12-31T23:24:04.406Z,13.57
2022-12-31T23:26:31.937Z,13.53
2022-12-31T23:29:02.068Z,13.74
2022-12-31T23:31:30.546Z,13.93
2022-12-31T23:33:58.419Z,13.92
2022-12-31T23:36:25.973Z,13.79
2022-12-31T23:38:54.747Z,13.60
2022-12-31T23:41:23.746Z,13.38
2022-12-31T23:43:51.311Z,13.14
2022-12-31T23:46:20.279Z,13.03
2022-12-31T23:48:47.937Z,12.84
2022-12-31T23:51:15.523Z,12.66
2022-12-31T23:53:43.173Z,12.51
2022-12-31T23:56:19.293Z,12.35
2022-12-31T23:58:54.531Z,12.30
